createdAt,value
2023-07-05T00:01:05.862Z,6.30
2023-07-05T00:03:45.490Z,4.60
2023-07-05T00:06:13.662Z,5.60
2023-07-05T00:08:41.824Z,5.50
2023-07-05T00:11:12.291Z,6.60
2023-07-05T00:13:41.405Z,5.10
2023-07-05T00:16:12.234Z,5.70
2023-07-05T00:18:40.913Z,4.90
2023-07-05T00:21:10.976Z,6.60
2023-07-05T00:23:40.963Z,3.80
2023-07-05T00:26:09.162Z,7.00
2023-07-05T00:28:37.342Z,3.90
2023-07-05T00:31:06.852Z,5.30
2023-07-05T00:33:35.369Z,5.20
2023-07-05T00:36:03.763Z,5.80
2023-07-05T00:38:32.043Z,5.90
2023-07-05T00:41:00.486Z,7.40
2023-07-05T00:43:29.624Z,4.00
2023-07-05T00:45:59.421Z,5.70
2023-07-05T00:48:45.497Z,5.30
2023-07-05T00:51:25.504Z,5.90
2023-07-05T00:53:58.425Z,6.20
2023-07-05T00:56:35.467Z,4.80
2023-07-05T00:59:06.731Z,3.90
2023-07-05T01:01:34.978Z,4.50
2023-07-05T01:04:05.630Z,6.80
2023-07-05T01:06:33.805Z,5.30
2023-07-05T01:09:02.525Z,7.10
2023-07-05T01:11:33.429Z,4.50
2023-07-05T01:14:34.905Z,7.60
2023-07-05T01:17:14.652Z,4.90
2023-07-05T01:20:11.043Z,6.70
2023-07-05T01:23:14.279Z,5.50
2023-07-05T01:26:00.852Z,7.00
2023-07-05T01:28:55.403Z,5.60
2023-07-05T01:32:01.530Z,10.70
2023-07-05T01:34:47.857Z,5.20
2023-07-05T01:37:39.988Z,6.00
2023-07-05T01:40:21.594Z,5.60
2023-07-05T01:42:57.192Z,4.30
2023-07-05T01:45:38.552Z,11.30
2023-07-05T01:48:32.508Z,5.30
2023-07-05T01:51:09.403Z,6.20
2023-07-05T01:54:00.327Z,7.10
2023-07-05T01:56:44.682Z,5.70
2023-07-05T01:59:15.231Z,6.50
2023-07-05T02:01:45.297Z,6.80
2023-07-05T02:04:14.992Z,7.70
2023-07-05T02:06:44.944Z,3.80
2023-07-05T02:11:43.987Z,5.70
2023-07-05T02:14:13.112Z,3.90
2023-07-05T02:16:41.282Z,3.50
2023-07-05T02:19:09.517Z,5.60
2023-07-05T02:21:37.609Z,5.50
2023-07-05T02:24:06.019Z,7.50
2023-07-05T02:26:35.211Z,8.00
2023-07-05T02:29:03.443Z,4.20
2023-07-05T02:31:31.621Z,3.50
2023-07-05T02:33:59.825Z,6.70
2023-07-05T02:36:27.922Z,5.20
2023-07-05T02:38:56.040Z,7.20
2023-07-05T02:41:24.122Z,4.70
2023-07-05T02:43:52.925Z,6.20
2023-07-05T02:46:21.292Z,5.40
2023-07-05T02:48:49.369Z,4.20
2023-07-05T02:51:17.484Z,5.50
2023-07-05T02:53:45.573Z,3.10
2023-07-05T02:56:14.806Z,4.70
2023-07-05T02:58:42.874Z,4.80
2023-07-05T03:01:11.398Z,4.20
2023-07-05T03:03:39.916Z,5.00
2023-07-05T03:06:07.996Z,5.70
2023-07-05T03:08:36.136Z,7.30
2023-07-05T03:11:04.311Z,5.80
2023-07-05T03:13:34.729Z,5.20
2023-07-05T03:16:03.992Z,4.50
2023-07-05T03:18:33.492Z,3.80
2023-07-05T03:21:01.635Z,8.90
2023-07-05T03:23:29.867Z,5.00
2023-07-05T03:26:04.005Z,2.50
2023-07-05T03:28:33.551Z,7.80
2023-07-05T03:31:02.382Z,7.00
2023-07-05T03:33:32.351Z,3.20
2023-07-05T03:36:03.705Z,6.10
2023-07-05T03:38:34.033Z,6.00
2023-07-05T03:41:12.554Z,8.40
2023-07-05T03:43:42.145Z,6.50
2023-07-05T03:46:12.665Z,2.90
2023-07-05T03:48:43.694Z,5.30
2023-07-05T03:51:14.398Z,7.50
2023-07-05T03:53:42.887Z,5.00
2023-07-05T03:56:12.199Z,8.00
2023-07-05T03:58:40.322Z,4.50
2023-07-05T04:01:21.050Z,5.20
2023-07-05T04:03:52.051Z,7.50
2023-07-05T04:06:21.531Z,6.60
2023-07-05T04:08:49.676Z,6.50
2023-07-05T04:11:18.700Z,6.70
2023-07-05T04:13:48.285Z,4.90
2023-07-05T04:16:20.186Z,4.90
2023-07-05T04:18:54.695Z,6.90
2023-07-05T04:21:24.332Z,5.80
2023-07-05T04:23:52.766Z,3.90
2023-07-05T04:26:23.529Z,3.90
2023-07-05T04:28:51.872Z,4.90
2023-07-05T04:31:25.590Z,6.10
2023-07-05T04:33:54.501Z,7.40
2023-07-05T04:36:28.064Z,5.90
2023-07-05T04:38:58.593Z,4.30
2023-07-05T04:41:27.764Z,6.90
2023-07-05T04:43:56.120Z,5.60
2023-07-05T04:46:25.330Z,5.70
2023-07-05T04:48:53.810Z,4.50
2023-07-05T04:51:22.013Z,6.20
2023-07-05T04:53:50.240Z,4.80
2023-07-05T04:56:18.370Z,5.60
2023-07-05T04:58:49.797Z,4.90
2023-07-05T05:01:19.892Z,4.70
2023-07-05T05:03:48.547Z,5.10
2023-07-05T05:06:16.784Z,5.30
2023-07-05T05:08:44.886Z,5.60
2023-07-05T05:11:13.010Z,4.90
2023-07-05T05:13:41.148Z,6.50
2023-07-05T05:16:09.239Z,7.30
2023-07-05T05:18:41.498Z,6.60
2023-07-05T05:23:37.874Z,9.00
2023-07-05T05:26:06.221Z,3.60
2023-07-05T05:28:34.371Z,5.00
2023-07-05T05:31:08.684Z,6.30
2023-07-05T05:33:38.012Z,6.30
2023-07-05T05:36:06.818Z,4.80
2023-07-05T05:38:36.733Z,6.30
2023-07-05T05:41:12.166Z,6.50
2023-07-05T05:43:40.682Z,8.60
2023-07-05T05:46:09.930Z,5.30
2023-07-05T05:48:39.470Z,7.30
2023-07-05T05:51:07.705Z,8.50
2023-07-05T05:53:35.923Z,7.40
2023-07-05T05:56:04.413Z,4.80
2023-07-05T05:58:33.085Z,5.10
2023-07-05T06:01:05.199Z,6.70
2023-07-05T06:06:01.779Z,5.80
2023-07-05T06:08:29.956Z,5.20
2023-07-05T06:10:59.661Z,5.80
2023-07-05T06:13:29.241Z,9.80
2023-07-05T06:16:13.916Z,7.90
2023-07-05T06:18:44.258Z,9.50
2023-07-05T06:21:13.308Z,8.10
2023-07-05T06:23:41.588Z,4.80
2023-07-05T06:26:11.270Z,4.20
2023-07-05T06:28:39.429Z,7.10
2023-07-05T06:31:09.309Z,6.70
2023-07-05T06:33:38.905Z,8.20
2023-07-05T06:36:08.461Z,5.80
2023-07-05T06:38:37.080Z,6.30
2023-07-05T06:41:05.256Z,6.20
2023-07-05T06:43:33.668Z,7.00
2023-07-05T06:46:01.890Z,7.80
2023-07-05T06:48:30.169Z,7.90
2023-07-05T06:51:00.798Z,3.90
2023-07-05T06:53:47.389Z,8.10
2023-07-05T06:56:17.994Z,7.30
2023-07-05T06:58:47.495Z,4.00
2023-07-05T07:01:15.905Z,5.20
2023-07-05T07:03:44.128Z,10.20
2023-07-05T07:06:12.714Z,7.10
2023-07-05T07:08:40.911Z,7.60
2023-07-05T07:11:11.698Z,7.30
2023-07-05T07:13:40.468Z,5.60
2023-07-05T07:16:13.947Z,6.30
2023-07-05T07:18:46.434Z,6.00
2023-07-05T07:21:15.451Z,6.30
2023-07-05T07:23:45.787Z,5.10
2023-07-05T07:26:18.096Z,5.30
2023-07-05T07:28:48.469Z,5.80
2023-07-05T07:31:26.326Z,3.80
2023-07-05T07:33:55.272Z,5.20
2023-07-05T07:36:26.672Z,7.50
2023-07-05T07:38:56.132Z,5.10
2023-07-05T07:41:36.277Z,7.30
2023-07-05T07:44:07.585Z,6.80
2023-07-05T07:46:37.050Z,6.40
2023-07-05T07:49:07.167Z,7.60
2023-07-05T07:51:39.445Z,5.20
2023-07-05T07:54:12.992Z,6.30
2023-07-05T07:56:46.673Z,6.40
2023-07-05T07:59:16.078Z,5.10
2023-07-05T08:01:45.635Z,7.70
2023-07-05T08:04:14.954Z,5.70
2023-07-05T08:06:49.927Z,5.30
2023-07-05T08:09:21.428Z,7.50
2023-07-05T08:11:49.853Z,6.10
2023-07-05T08:14:19.028Z,6.70
2023-07-05T08:16:48.339Z,4.60
2023-07-05T08:19:17.169Z,6.50
2023-07-05T08:21:46.347Z,5.80
2023-07-05T08:24:26.413Z,3.80
2023-07-05T08:26:57.383Z,7.40
2023-07-05T08:29:26.201Z,3.80
2023-07-05T08:31:54.388Z,4.90
2023-07-05T08:34:22.770Z,4.10
2023-07-05T08:36:51.046Z,5.20
2023-07-05T08:39:19.221Z,5.50
2023-07-05T08:42:03.497Z,4.00
2023-07-05T08:44:32.189Z,5.80
2023-07-05T08:47:17.047Z,6.30
2023-07-05T08:50:28.097Z,6.00
2023-07-05T08:53:15.129Z,8.60
2023-07-05T08:56:03.989Z,8.30
2023-07-05T08:58:47.466Z,4.80
2023-07-05T09:01:25.228Z,11.20
2023-07-05T09:03:53.563Z,6.50
2023-07-05T09:06:33.199Z,9.20
2023-07-05T09:09:31.330Z,9.50
2023-07-05T09:12:27.147Z,8.90
2023-07-05T09:15:22.330Z,5.50
2023-07-05T09:17:51.913Z,5.00
2023-07-05T09:20:37.924Z,7.50
2023-07-05T09:23:15.221Z,8.50
2023-07-05T09:25:55.833Z,6.00
2023-07-05T09:28:40.644Z,6.90
2023-07-05T09:31:13.165Z,4.50
2023-07-05T09:33:48.404Z,7.30
2023-07-05T09:36:26.534Z,3.60
2023-07-05T09:39:15.497Z,6.90
2023-07-05T09:41:51.184Z,6.60
2023-07-05T09:44:20.875Z,4.40
2023-07-05T09:46:50.203Z,4.30
2023-07-05T09:49:20.594Z,7.30
2023-07-05T09:51:49.139Z,9.40
2023-07-05T09:54:30.536Z,5.50
2023-07-05T09:57:06.280Z,5.70
2023-07-05T09:59:35.523Z,6.10
2023-07-05T10:02:15.810Z,6.40
2023-07-05T10:04:47.743Z,5.10
2023-07-05T10:10:12.033Z,8.40
2023-07-05T10:12:44.200Z,7.10
2023-07-05T10:15:26.044Z,5.80
2023-07-05T10:17:56.919Z,3.50
2023-07-05T10:20:29.252Z,5.30
2023-07-05T10:23:03.858Z,7.60
2023-07-05T10:25:36.477Z,5.80
2023-07-05T10:28:07.270Z,7.10
2023-07-05T10:30:50.552Z,5.30
2023-07-05T10:33:24.173Z,3.10
2023-07-05T10:36:10.717Z,5.20
2023-07-05T10:38:47.944Z,2.80
2023-07-05T10:41:22.196Z,4.00
2023-07-05T10:44:00.539Z,4.40
2023-07-05T10:46:29.822Z,4.80
2023-07-05T10:48:59.326Z,6.00
2023-07-05T10:51:34.378Z,3.60
2023-07-05T10:54:15.649Z,5.50
2023-07-05T10:56:46.957Z,3.40
2023-07-05T10:59:28.372Z,4.10
2023-07-05T11:02:19.697Z,3.40
2023-07-05T11:04:51.180Z,7.40
2023-07-05T11:07:21.393Z,8.10
2023-07-05T11:09:50.329Z,3.90
2023-07-05T11:12:21.802Z,5.30
2023-07-05T11:14:51.788Z,4.40
2023-07-05T11:17:32.471Z,3.20
2023-07-05T11:20:00.881Z,3.70
2023-07-05T11:22:38.132Z,7.20
2023-07-05T11:25:10.796Z,6.90
2023-07-05T11:27:38.833Z,5.60
2023-07-05T11:30:40.686Z,5.30
2023-07-05T11:33:09.584Z,4.90
2023-07-05T11:35:51.004Z,4.50
2023-07-05T11:38:58.791Z,6.30
2023-07-05T11:41:29.305Z,5.40
2023-07-05T11:44:23.411Z,4.20
2023-07-05T11:46:52.037Z,3.10
2023-07-05T11:49:23.197Z,6.00
2023-07-05T11:51:56.325Z,5.10
2023-07-05T11:54:33.218Z,3.70
2023-07-05T11:57:05.150Z,7.90
2023-07-05T11:59:39.388Z,6.90
2023-07-05T12:02:26.974Z,5.70
2023-07-05T12:04:59.649Z,4.70
2023-07-05T12:07:28.467Z,5.40
2023-07-05T12:09:58.280Z,5.70
2023-07-05T12:12:27.170Z,6.20
2023-07-05T12:14:55.407Z,6.30
2023-07-05T12:17:28.127Z,5.10
2023-07-05T12:19:58.742Z,3.90
2023-07-05T12:22:27.567Z,3.90
2023-07-05T12:24:58.650Z,6.10
2023-07-05T12:27:30.008Z,9.70
2023-07-05T12:30:01.038Z,2.70
2023-07-05T12:32:30.266Z,5.60
2023-07-05T12:35:10.620Z,7.50
2023-07-05T12:37:39.448Z,10.90
2023-07-05T12:40:18.658Z,4.40
2023-07-05T12:42:52.700Z,7.10
2023-07-05T12:45:30.123Z,6.70
2023-07-05T12:48:13.298Z,5.50
2023-07-05T12:50:42.377Z,4.10
2023-07-05T12:53:17.737Z,5.00
2023-07-05T12:56:13.922Z,6.00
2023-07-05T12:58:51.316Z,3.80
2023-07-05T13:01:20.064Z,6.30
2023-07-05T13:03:51.728Z,5.00
2023-07-05T13:06:20.651Z,3.50
2023-07-05T13:08:52.411Z,7.40
2023-07-05T13:11:28.801Z,5.30
2023-07-05T13:14:02.238Z,5.30
2023-07-05T13:16:53.756Z,3.10
2023-07-05T13:19:22.657Z,7.20
2023-07-05T13:21:51.484Z,7.80
2023-07-05T13:24:28.678Z,3.70
2023-07-05T13:26:57.745Z,5.60
2023-07-05T13:29:38.810Z,6.10
2023-07-05T13:32:07.218Z,8.00
2023-07-05T13:34:35.352Z,4.60
2023-07-05T13:37:09.124Z,6.10
2023-07-05T13:39:37.318Z,4.80
2023-07-05T13:42:05.909Z,6.40
2023-07-05T13:44:34.055Z,8.20
2023-07-05T13:47:02.360Z,4.30
2023-07-05T13:49:30.523Z,6.20
2023-07-05T13:52:00.607Z,6.20
2023-07-05T13:54:30.041Z,5.60
2023-07-05T13:56:58.323Z,6.40
2023-07-05T13:59:26.516Z,5.10
2023-07-05T14:01:56.241Z,5.10
2023-07-05T14:04:25.536Z,6.60
2023-07-05T14:06:53.721Z,6.00
2023-07-05T14:09:21.800Z,6.40
2023-07-05T14:11:50.230Z,6.60
2023-07-05T14:14:18.399Z,7.50
2023-07-05T14:16:46.986Z,5.60
2023-07-05T14:19:15.286Z,10.70
2023-07-05T14:21:44.364Z,5.80
2023-07-05T14:24:13.885Z,7.10
2023-07-05T14:26:43.000Z,5.60
2023-07-05T14:29:11.159Z,4.00
2023-07-05T14:31:39.971Z,5.80
2023-07-05T14:34:13.547Z,6.20
2023-07-05T14:36:41.620Z,9.90
2023-07-05T14:39:10.599Z,6.50
2023-07-05T14:41:38.891Z,9.20
2023-07-05T14:44:09.584Z,8.20
2023-07-05T14:46:38.867Z,8.30
2023-07-05T14:49:07.031Z,6.60
2023-07-05T14:51:35.496Z,6.80
2023-07-05T14:54:06.542Z,7.10
2023-07-05T14:56:34.646Z,9.20
2023-07-05T14:59:02.765Z,6.60
2023-07-05T15:01:32.182Z,6.20
2023-07-05T15:04:00.717Z,7.10
2023-07-05T15:06:29.095Z,6.80
2023-07-05T15:08:57.229Z,7.70
2023-07-05T15:11:27.378Z,10.20
2023-07-05T15:13:57.037Z,7.30
2023-07-05T15:16:25.762Z,8.70
2023-07-05T15:18:53.962Z,9.30
2023-07-05T15:21:23.786Z,10.20
2023-07-05T15:23:54.204Z,11.30
2023-07-05T15:26:23.720Z,8.50
2023-07-05T15:28:51.948Z,9.00
2023-07-05T15:31:21.587Z,9.70
2023-07-05T15:33:49.884Z,8.10
2023-07-05T15:36:19.685Z,10.70
2023-07-05T15:38:49.510Z,10.10
2023-07-05T15:41:18.013Z,9.40
2023-07-05T15:43:46.460Z,11.40
2023-07-05T15:46:14.630Z,9.80
2023-07-05T15:48:44.662Z,9.60
2023-07-05T15:51:13.214Z,11.30
2023-07-05T15:53:41.541Z,11.30
2023-07-05T15:56:09.736Z,10.20
2023-07-05T15:58:43.999Z,9.60
2023-07-05T16:01:15.704Z,12.60
2023-07-05T16:03:43.918Z,10.40
2023-07-05T16:06:14.163Z,17.20
2023-07-05T16:08:42.622Z,12.80
2023-07-05T16:11:13.712Z,9.60
2023-07-05T16:13:42.188Z,11.40
2023-07-05T16:16:10.310Z,11.10
2023-07-05T16:18:38.605Z,12.80
2023-07-05T16:21:06.885Z,11.10
2023-07-05T16:23:35.205Z,14.20
2023-07-05T16:26:03.507Z,13.50
2023-07-05T16:28:32.367Z,10.10
2023-07-05T16:31:05.233Z,12.90
2023-07-05T16:33:33.470Z,13.40
2023-07-05T16:36:02.282Z,14.80
2023-07-05T16:38:30.620Z,12.70
2023-07-05T16:41:00.867Z,17.30
2023-07-05T16:43:29.929Z,15.10
2023-07-05T16:46:00.032Z,14.70
2023-07-05T16:48:29.049Z,14.80
2023-07-05T16:50:58.077Z,14.70
2023-07-05T16:53:26.459Z,17.80
2023-07-05T16:56:01.571Z,16.70
2023-07-05T16:58:30.128Z,15.80
2023-07-05T17:01:08.124Z,15.20
2023-07-05T17:03:40.453Z,17.50
2023-07-05T17:06:10.836Z,17.60
2023-07-05T17:08:40.517Z,17.30
2023-07-05T17:11:11.272Z,19.90
2023-07-05T17:13:39.550Z,15.90
2023-07-05T17:16:07.918Z,17.50
2023-07-05T17:18:36.428Z,20.70
2023-07-05T17:21:07.671Z,18.40
2023-07-05T17:23:36.118Z,17.10
2023-07-05T17:26:10.685Z,20.20
2023-07-05T17:28:43.142Z,19.20
2023-07-05T17:31:16.217Z,17.90
2023-07-05T17:33:45.315Z,19.00
2023-07-05T17:36:16.034Z,24.10
2023-07-05T17:38:44.816Z,21.90
2023-07-05T17:41:14.470Z,17.60
2023-07-05T17:43:43.274Z,19.40
2023-07-05T17:46:20.402Z,20.60
2023-07-05T17:48:50.618Z,17.10
2023-07-05T17:51:20.029Z,14.60
2023-07-05T17:53:48.874Z,15.30
2023-07-05T17:56:19.489Z,17.00
2023-07-05T17:58:48.728Z,13.00
2023-07-05T18:01:19.817Z,13.00
2023-07-05T18:03:48.656Z,14.90
2023-07-05T18:06:17.386Z,15.30
2023-07-05T18:08:46.692Z,15.50
2023-07-05T18:11:14.839Z,12.80
2023-07-05T18:13:43.434Z,13.20
2023-07-05T18:16:15.037Z,14.50
2023-07-05T18:18:43.922Z,12.60
2023-07-05T18:21:15.608Z,12.10
2023-07-05T18:23:48.647Z,10.60
2023-07-05T18:26:18.581Z,15.00
2023-07-05T18:28:52.905Z,11.00
2023-07-05T18:31:22.607Z,10.00
2023-07-05T18:33:51.887Z,12.70
2023-07-05T18:36:23.036Z,11.20
2023-07-05T18:38:52.941Z,11.90
2023-07-05T18:41:22.816Z,11.10
2023-07-05T18:43:51.314Z,12.40
2023-07-05T18:46:19.591Z,13.60
2023-07-05T18:48:48.314Z,10.60
2023-07-05T18:51:16.521Z,9.10
2023-07-05T18:53:44.659Z,11.80
2023-07-05T18:56:19.041Z,12.60
2023-07-05T18:58:47.833Z,12.50
2023-07-05T19:01:20.757Z,14.00
2023-07-05T19:03:50.656Z,16.10
2023-07-05T19:06:21.774Z,9.50
2023-07-05T19:08:50.793Z,8.90
2023-07-05T19:11:24.953Z,11.40
2023-07-05T19:13:54.200Z,9.90
2023-07-05T19:16:25.359Z,10.90
2023-07-05T19:18:54.199Z,12.40
2023-07-05T19:21:22.302Z,11.60
2023-07-05T19:23:51.445Z,9.70
2023-07-05T19:26:21.081Z,15.60
2023-07-05T19:28:53.112Z,11.80
2023-07-05T19:31:27.327Z,11.50
2023-07-05T19:33:56.108Z,14.30
2023-07-05T19:36:26.436Z,11.50
2023-07-05T19:38:56.572Z,14.80
2023-07-05T19:41:25.369Z,13.50
2023-07-05T19:43:53.514Z,14.70
2023-07-05T19:46:26.358Z,11.70
2023-07-05T19:49:01.480Z,14.80
2023-07-05T19:51:30.925Z,11.50
2023-07-05T19:53:59.102Z,9.00
2023-07-05T19:56:28.810Z,14.20
2023-07-05T19:58:59.311Z,11.10
2023-07-05T20:01:28.560Z,11.10
2023-07-05T20:03:56.710Z,11.70
2023-07-05T20:06:24.903Z,11.40
2023-07-05T20:08:54.053Z,11.80
2023-07-05T20:11:23.477Z,10.10
2023-07-05T20:13:52.223Z,9.90
2023-07-05T20:16:21.650Z,11.40
2023-07-05T20:18:50.310Z,9.40
2023-07-05T20:21:20.254Z,12.30
2023-07-05T20:23:49.118Z,9.70
2023-07-05T20:26:18.120Z,12.50
2023-07-05T20:28:47.534Z,11.50
2023-07-05T20:31:16.578Z,11.10
2023-07-05T20:33:44.971Z,13.80
2023-07-05T20:36:15.965Z,11.40
2023-07-05T20:38:44.600Z,14.30
2023-07-05T20:41:12.739Z,13.50
2023-07-05T20:43:41.324Z,14.40
2023-07-05T20:46:09.602Z,14.20
2023-07-05T20:48:37.948Z,14.20
2023-07-05T20:51:11.965Z,13.70
2023-07-05T20:53:40.606Z,14.30
2023-07-05T20:56:10.371Z,14.30
2023-07-05T20:58:39.007Z,14.20
2023-07-05T21:01:14.725Z,16.00
2023-07-05T21:03:43.015Z,14.00
2023-07-05T21:06:11.375Z,15.60
2023-07-05T21:08:40.153Z,15.80
2023-07-05T21:11:10.817Z,15.80
2023-07-05T21:13:42.223Z,14.80
2023-07-05T21:16:12.640Z,18.50
2023-07-05T21:18:41.120Z,12.90
2023-07-05T21:21:10.690Z,12.10
2023-07-05T21:23:39.262Z,12.50
2023-07-05T21:26:09.081Z,14.10
2023-07-05T21:28:37.884Z,14.50
2023-07-05T21:31:07.384Z,13.10
2023-07-05T21:33:36.371Z,11.80
2023-07-05T21:36:04.999Z,12.20
2023-07-05T21:38:33.163Z,13.90
2023-07-05T21:41:01.643Z,9.60
2023-07-05T21:43:30.604Z,10.20
2023-07-05T21:45:59.238Z,13.70
2023-07-05T21:48:30.086Z,9.80
2023-07-05T21:50:59.742Z,13.20
2023-07-05T21:53:28.485Z,11.70
2023-07-05T21:55:58.429Z,10.00
2023-07-05T21:58:29.970Z,10.60
2023-07-05T22:01:00.130Z,11.60
2023-07-05T22:03:29.094Z,9.80
2023-07-05T22:05:58.947Z,13.70
2023-07-05T22:08:27.638Z,10.30
2023-07-05T22:10:56.590Z,10.00
2023-07-05T22:13:26.253Z,10.20
2023-07-05T22:15:55.366Z,9.20
2023-07-05T22:18:23.837Z,10.00
2023-07-05T22:20:52.033Z,8.70
2023-07-05T22:23:22.466Z,8.50
2023-07-05T22:25:50.618Z,9.70
2023-07-05T22:28:18.712Z,9.40
2023-07-05T22:30:48.755Z,8.90
2023-07-05T22:33:17.025Z,10.80
2023-07-05T22:35:46.292Z,10.10
2023-07-05T22:38:14.557Z,10.40
2023-07-05T22:40:45.053Z,9.70
2023-07-05T22:43:13.157Z,9.30
2023-07-05T22:45:41.386Z,11.30
2023-07-05T22:48:09.459Z,9.80
2023-07-05T22:50:37.886Z,11.60
2023-07-05T22:53:06.001Z,9.90
2023-07-05T22:55:34.235Z,10.90
2023-07-05T22:58:02.745Z,9.30
2023-07-05T23:00:31.501Z,9.80
2023-07-05T23:03:00.179Z,10.60
2023-07-05T23:05:29.902Z,10.00
2023-07-05T23:08:00.340Z,9.20
2023-07-05T23:10:28.508Z,10.00
2023-07-05T23:12:57.482Z,11.70
2023-07-05T23:15:26.420Z,9.90
2023-07-05T23:17:54.638Z,10.20
2023-07-05T23:20:24.365Z,10.10
2023-07-05T23:22:52.984Z,11.00
2023-07-05T23:25:21.103Z,11.80
2023-07-05T23:27:51.215Z,12.00
2023-07-05T23:30:19.822Z,11.90
2023-07-05T23:32:49.934Z,11.20
2023-07-05T23:35:18.310Z,11.20
2023-07-05T23:37:46.415Z,9.90
2023-07-05T23:40:14.600Z,9.80
2023-07-05T23:42:42.687Z,13.30
2023-07-05T23:45:12.658Z,8.50
2023-07-05T23:47:41.453Z,15.50
2023-07-05T23:50:11.158Z,10.00
2023-07-05T23:52:41.283Z,10.00
2023-07-05T23:55:10.756Z,11.90
2023-07-05T23:57:39.460Z,12.80
